createdAt,value
2023-02-15T00:02:04.104Z,4.76
2023-02-15T00:04:51.033Z,4.75
2023-02-15T00:07:19.858Z,4.82
2023-02-15T00:09:47.894Z,4.80
2023-02-15T00:12:16.233Z,4.83
2023-02-15T00:14:43.832Z,4.80
2023-02-15T00:17:11.624Z,4.77
2023-02-15T00:19:38.979Z,4.74
2023-02-15T00:22:06.523Z,4.89
2023-02-15T00:24:34.151Z,4.86
2023-02-15T00:27:01.528Z,4.80
2023-02-15T00:29:29.104Z,4.63
2023-02-15T00:31:56.809Z,4.62
2023-02-15T00:34:26.745Z,4.65
2023-02-15T00:36:54.256Z,4.62
2023-02-15T00:39:22.290Z,4.59
2023-02-15T00:41:49.728Z,4.66
2023-02-15T00:44:17.212Z,4.70
2023-02-15T00:46:44.949Z,4.68
2023-02-15T00:49:13.101Z,4.62
2023-02-15T00:51:40.632Z,4.65
2023-02-15T00:54:09.029Z,4.68
2023-02-15T00:56:36.493Z,4.62
2023-02-15T00:59:04.720Z,4.60
2023-02-15T01:01:32.482Z,4.62
2023-02-15T01:04:00.064Z,4.65
2023-02-15T01:06:30.656Z,4.59
2023-02-15T01:08:58.430Z,4.58
2023-02-15T01:11:25.826Z,4.65
2023-02-15T01:13:58.154Z,4.61
2023-02-15T01:16:27.856Z,4.60
2023-02-15T01:18:58.393Z,4.61
2023-02-15T01:21:27.070Z,4.55
2023-02-15T01:23:54.762Z,4.63
2023-02-15T01:26:22.121Z,4.49
2023-02-15T01:28:49.855Z,4.48
2023-02-15T01:31:19.917Z,4.48
2023-02-15T01:33:49.779Z,4.50
2023-02-15T01:36:18.337Z,4.55
2023-02-15T01:38:46.401Z,4.55
2023-02-15T01:41:27.223Z,4.47
2023-02-15T01:43:57.456Z,4.50
2023-02-15T01:46:41.944Z,4.54
2023-02-15T01:49:11.021Z,4.56
2023-02-15T01:51:39.292Z,4.41
2023-02-15T01:54:25.523Z,4.52
2023-02-15T01:56:54.121Z,4.42
2023-02-15T01:59:23.169Z,4.43
2023-02-15T02:01:52.477Z,4.34
2023-02-15T02:04:25.978Z,4.24
2023-02-15T02:06:54.438Z,4.24
2023-02-15T02:09:22.084Z,4.29
2023-02-15T02:11:50.731Z,4.38
2023-02-15T02:14:19.197Z,4.27
2023-02-15T02:16:58.532Z,4.36
2023-02-15T02:19:45.005Z,4.33
2023-02-15T02:22:24.312Z,4.23
2023-02-15T02:25:13.035Z,4.20
2023-02-15T02:27:51.037Z,4.15
2023-02-15T02:30:33.365Z,4.16
2023-02-15T02:33:15.914Z,4.09
2023-02-15T02:36:04.173Z,4.20
2023-02-15T02:38:56.812Z,4.08
2023-02-15T02:41:27.346Z,4.20
2023-02-15T02:44:22.897Z,4.11
2023-02-15T02:46:59.793Z,4.08
2023-02-15T02:49:34.950Z,4.25
2023-02-15T02:52:05.585Z,4.07
2023-02-15T02:54:35.729Z,3.99
2023-02-15T02:57:06.770Z,4.10
2023-02-15T02:59:38.934Z,4.01
2023-02-15T03:02:14.011Z,4.01
2023-02-15T03:04:59.322Z,3.88
2023-02-15T03:07:29.763Z,3.94
2023-02-15T03:10:00.151Z,4.03
2023-02-15T03:12:29.181Z,3.84
2023-02-15T03:15:01.683Z,3.98
2023-02-15T03:17:32.463Z,3.78
2023-02-15T03:20:05.489Z,3.71
2023-02-15T03:22:38.365Z,3.75
2023-02-15T03:25:12.701Z,3.71
2023-02-15T03:27:45.386Z,3.59
2023-02-15T03:30:12.888Z,3.54
2023-02-15T03:32:41.057Z,3.62
2023-02-15T03:35:08.805Z,3.63
2023-02-15T03:37:42.998Z,3.61
2023-02-15T03:40:39.524Z,3.53
2023-02-15T03:43:39.784Z,3.40
2023-02-15T03:46:15.359Z,3.37
2023-02-15T03:48:50.544Z,3.47
2023-02-15T03:51:37.173Z,3.52
2023-02-15T03:54:14.386Z,3.61
2023-02-15T03:57:03.050Z,3.57
2023-02-15T03:59:49.105Z,3.25
2023-02-15T04:02:22.599Z,3.25
2023-02-15T04:04:50.599Z,3.40
2023-02-15T04:07:18.037Z,3.21
2023-02-15T04:10:03.610Z,3.29
2023-02-15T04:12:32.086Z,3.28
2023-02-15T04:15:18.142Z,3.20
2023-02-15T04:17:45.854Z,3.34
2023-02-15T04:20:31.726Z,3.05
2023-02-15T04:23:17.873Z,3.12
2023-02-15T04:25:45.249Z,3.08
2023-02-15T04:28:12.916Z,3.03
2023-02-15T04:30:40.299Z,2.99
2023-02-15T04:33:07.650Z,3.13
2023-02-15T04:35:35.314Z,3.03
2023-02-15T04:38:02.793Z,3.01
2023-02-15T04:40:30.221Z,3.07
2023-02-15T04:42:57.835Z,3.17
2023-02-15T04:45:25.244Z,2.98
2023-02-15T04:47:52.669Z,2.97
2023-02-15T04:50:20.380Z,3.02
2023-02-15T04:52:47.907Z,2.96
2023-02-15T04:55:15.438Z,3.06
2023-02-15T04:57:43.116Z,2.89
2023-02-15T05:00:10.926Z,2.93
2023-02-15T05:02:38.710Z,2.96
2023-02-15T05:05:06.754Z,3.09
2023-02-15T05:07:34.116Z,2.87
2023-02-15T05:10:01.466Z,2.88
2023-02-15T05:12:29.124Z,2.92
2023-02-15T05:14:56.470Z,2.90
2023-02-15T05:17:23.809Z,2.81
2023-02-15T05:19:51.516Z,2.80
2023-02-15T05:22:18.929Z,2.75
2023-02-15T05:25:04.693Z,2.79
2023-02-15T05:27:51.054Z,2.82
2023-02-15T05:30:18.725Z,2.81
2023-02-15T05:32:46.542Z,2.71
2023-02-15T05:35:16.093Z,2.77
2023-02-15T05:37:43.564Z,2.76
2023-02-15T05:40:11.743Z,2.79
2023-02-15T05:42:39.209Z,2.81
2023-02-15T05:45:07.365Z,2.83
2023-02-15T05:47:35.280Z,2.95
2023-02-15T05:50:02.707Z,2.77
2023-02-15T05:52:30.190Z,2.75
2023-02-15T05:54:59.028Z,2.67
2023-02-15T05:57:26.474Z,2.69
2023-02-15T05:59:53.886Z,2.84
2023-02-15T06:02:21.632Z,2.90
2023-02-15T06:04:49.402Z,2.87
2023-02-15T06:07:16.790Z,2.68
2023-02-15T06:09:44.156Z,2.80
2023-02-15T06:12:11.816Z,2.79
2023-02-15T06:14:39.180Z,2.78
2023-02-15T06:17:06.597Z,2.85
2023-02-15T06:19:34.244Z,2.73
2023-02-15T06:22:01.640Z,2.67
2023-02-15T06:24:29.079Z,2.73
2023-02-15T06:26:56.817Z,2.93
2023-02-15T06:29:24.262Z,2.93
2023-02-15T06:31:51.639Z,3.11
2023-02-15T06:34:19.474Z,3.19
2023-02-15T06:36:47.098Z,3.22
2023-02-15T06:39:14.594Z,3.35
2023-02-15T06:41:42.527Z,3.37
2023-02-15T06:44:09.954Z,3.32
2023-02-15T06:46:37.470Z,3.40
2023-02-15T06:49:05.107Z,3.47
2023-02-15T06:51:32.498Z,3.61
2023-02-15T06:53:59.855Z,3.81
2023-02-15T06:56:27.566Z,3.87
2023-02-15T06:58:54.982Z,3.88
2023-02-15T07:01:22.512Z,4.10
2023-02-15T07:03:50.663Z,3.98
2023-02-15T07:06:18.117Z,4.19
2023-02-15T07:08:45.601Z,4.16
2023-02-15T07:11:31.757Z,4.40
2023-02-15T07:13:59.239Z,4.31
2023-02-15T07:16:27.003Z,5.33
2023-02-15T07:18:54.485Z,5.80
2023-02-15T07:21:21.891Z,5.92
2023-02-15T07:23:49.530Z,6.76
2023-02-15T07:26:16.880Z,7.02
2023-02-15T07:28:44.312Z,7.00
2023-02-15T07:31:12.071Z,6.90
2023-02-15T07:33:39.711Z,6.82
2023-02-15T07:36:07.635Z,6.68
2023-02-15T07:38:37.490Z,6.68
2023-02-15T07:41:10.128Z,6.63
2023-02-15T07:43:39.681Z,6.67
2023-02-15T07:46:10.842Z,6.66
2023-02-15T07:48:39.724Z,6.75
2023-02-15T07:51:09.182Z,6.81
2023-02-15T07:53:36.905Z,6.88
2023-02-15T07:56:07.268Z,6.95
2023-02-15T07:58:53.383Z,6.98
2023-02-15T08:01:30.591Z,7.04
2023-02-15T08:04:01.223Z,7.03
2023-02-15T08:06:31.139Z,7.14
2023-02-15T08:08:58.897Z,7.27
2023-02-15T08:11:34.545Z,7.39
2023-02-15T08:14:12.353Z,7.47
2023-02-15T08:16:51.010Z,7.57
2023-02-15T08:19:21.509Z,7.68
2023-02-15T08:21:54.517Z,7.72
2023-02-15T08:24:24.063Z,7.73
2023-02-15T08:26:52.593Z,7.87
2023-02-15T08:29:23.429Z,8.00
2023-02-15T08:31:54.356Z,8.17
2023-02-15T08:34:22.266Z,8.21
2023-02-15T08:36:49.635Z,8.28
2023-02-15T08:39:17.699Z,8.36
2023-02-15T08:41:46.802Z,8.17
2023-02-15T08:44:16.309Z,7.85
2023-02-15T08:46:45.446Z,7.90
2023-02-15T08:49:14.755Z,7.98
2023-02-15T08:51:42.670Z,8.07
2023-02-15T08:54:13.597Z,8.10
2023-02-15T08:56:42.500Z,8.27
2023-02-15T08:59:22.058Z,8.25
2023-02-15T09:01:51.472Z,8.36
2023-02-15T09:04:19.546Z,8.67
2023-02-15T09:06:49.238Z,8.68
2023-02-15T09:09:18.225Z,8.72
2023-02-15T09:11:47.916Z,8.88
2023-02-15T09:14:17.567Z,8.90
2023-02-15T09:16:55.387Z,8.89
2023-02-15T09:19:23.976Z,9.13
2023-02-15T09:21:52.393Z,9.25
2023-02-15T09:24:19.973Z,9.52
2023-02-15T09:26:49.088Z,9.01
2023-02-15T09:29:18.030Z,9.29
2023-02-15T09:31:50.931Z,9.27
2023-02-15T09:34:21.443Z,9.61
2023-02-15T09:36:49.569Z,9.57
2023-02-15T09:39:19.765Z,9.59
2023-02-15T09:41:56.327Z,9.83
2023-02-15T09:44:26.562Z,9.38
2023-02-15T09:47:18.087Z,9.64
2023-02-15T09:50:24.310Z,9.92
2023-02-15T09:53:00.709Z,10.09
2023-02-15T09:55:52.439Z,10.23
2023-02-15T09:58:22.938Z,10.16
2023-02-15T10:01:11.248Z,10.12
2023-02-15T10:03:47.989Z,10.04
2023-02-15T10:06:45.311Z,10.35
2023-02-15T10:09:31.786Z,10.01
2023-02-15T10:12:44.087Z,10.24
2023-02-15T10:15:20.156Z,10.47
2023-02-15T10:18:01.582Z,10.54
2023-02-15T10:20:31.906Z,10.74
2023-02-15T10:23:04.280Z,10.71
2023-02-15T10:26:03.168Z,10.83
2023-02-15T10:28:43.450Z,10.67
2023-02-15T10:31:24.533Z,10.88
2023-02-15T10:34:15.455Z,10.93
2023-02-15T10:37:27.717Z,11.02
2023-02-15T10:40:21.663Z,11.06
2023-02-15T10:42:55.395Z,11.14
2023-02-15T10:45:22.860Z,11.24
2023-02-15T10:47:56.195Z,11.30
2023-02-15T10:50:51.722Z,11.14
2023-02-15T10:53:40.440Z,11.26
2023-02-15T10:56:16.651Z,11.42
2023-02-15T10:58:51.839Z,11.78
2023-02-15T11:01:34.246Z,11.68
2023-02-15T11:04:39.753Z,11.87
2023-02-15T11:07:17.658Z,11.74
2023-02-15T11:09:50.040Z,11.90
2023-02-15T11:12:21.489Z,11.88
2023-02-15T11:14:54.099Z,11.95
2023-02-15T11:17:35.198Z,11.86
2023-02-15T11:20:20.137Z,11.93
2023-02-15T11:22:51.875Z,11.87
2023-02-15T11:25:33.492Z,11.77
2023-02-15T11:28:05.381Z,11.85
2023-02-15T11:30:47.628Z,11.61
2023-02-15T11:33:23.402Z,11.61
2023-02-15T11:36:18.157Z,11.82
2023-02-15T11:38:47.307Z,12.07
2023-02-15T11:41:20.108Z,11.87
2023-02-15T11:43:54.972Z,12.01
2023-02-15T11:46:22.901Z,12.17
2023-02-15T11:48:50.785Z,11.85
2023-02-15T11:51:22.090Z,11.94
2023-02-15T11:53:52.706Z,12.03
2023-02-15T11:56:23.530Z,12.06
2023-02-15T11:59:10.320Z,12.03
2023-02-15T12:01:42.320Z,11.96
2023-02-15T12:04:40.318Z,11.86
2023-02-15T12:07:18.770Z,12.15
2023-02-15T12:09:57.571Z,11.99
2023-02-15T12:12:29.316Z,12.24
2023-02-15T12:15:01.862Z,12.18
2023-02-15T12:17:32.018Z,12.30
2023-02-15T12:20:26.362Z,12.05
2023-02-15T12:23:04.643Z,12.23
2023-02-15T12:25:48.666Z,12.15
2023-02-15T12:28:34.117Z,12.23
2023-02-15T12:31:05.125Z,12.13
2023-02-15T12:33:41.978Z,12.36
2023-02-15T12:36:45.538Z,12.18
2023-02-15T12:39:26.658Z,12.37
2023-02-15T12:41:57.086Z,12.15
2023-02-15T12:44:27.791Z,12.18
2023-02-15T12:47:10.719Z,12.04
2023-02-15T12:49:38.950Z,12.09
2023-02-15T12:52:25.072Z,12.09
2023-02-15T12:54:53.007Z,11.87
2023-02-15T12:57:27.757Z,11.92
2023-02-15T13:00:01.615Z,11.88
2023-02-15T13:02:41.879Z,11.79
2023-02-15T13:05:20.813Z,11.76
2023-02-15T13:07:55.810Z,11.70
2023-02-15T13:10:27.225Z,11.81
2023-02-15T13:12:57.543Z,11.99
2023-02-15T13:15:33.645Z,11.85
2023-02-15T13:18:05.696Z,11.77
2023-02-15T13:20:35.448Z,11.74
2023-02-15T13:23:14.859Z,11.80
2023-02-15T13:25:51.077Z,11.65
2023-02-15T13:28:21.685Z,11.80
2023-02-15T13:30:50.274Z,11.72
2023-02-15T13:33:27.347Z,11.60
2023-02-15T13:36:10.700Z,11.69
2023-02-15T13:38:59.812Z,11.63
2023-02-15T13:41:50.104Z,11.79
2023-02-15T13:44:42.055Z,11.57
2023-02-15T13:47:33.470Z,11.53
2023-02-15T13:50:28.458Z,11.56
2023-02-15T13:53:08.610Z,11.77
2023-02-15T13:55:39.274Z,11.62
2023-02-15T13:58:25.582Z,11.87
2023-02-15T14:01:16.787Z,11.93
2023-02-15T14:03:57.262Z,11.81
2023-02-15T14:06:47.827Z,11.95
2023-02-15T14:09:37.820Z,11.83
2023-02-15T14:12:24.633Z,11.88
2023-02-15T14:15:16.696Z,11.89
2023-02-15T14:18:05.308Z,11.79
2023-02-15T14:20:58.196Z,11.78
2023-02-15T14:23:43.277Z,11.70
2023-02-15T14:26:32.915Z,11.77
2023-02-15T14:29:22.225Z,11.59
2023-02-15T14:31:59.715Z,11.55
2023-02-15T14:34:42.517Z,11.72
2023-02-15T14:37:13.089Z,11.58
2023-02-15T14:40:22.177Z,11.75
2023-02-15T14:43:09.745Z,11.46
2023-02-15T14:45:50.583Z,11.49
2023-02-15T14:48:46.417Z,11.52
2023-02-15T14:51:52.626Z,11.37
2023-02-15T14:54:23.158Z,11.43
2023-02-15T14:57:03.202Z,11.63
2023-02-15T14:59:59.791Z,11.35
2023-02-15T15:02:41.978Z,11.41
2023-02-15T15:05:18.661Z,11.48
2023-02-15T15:07:54.714Z,11.46
2023-02-15T15:10:22.278Z,11.71
2023-02-15T15:12:54.053Z,11.64
2023-02-15T15:15:27.819Z,11.52
2023-02-15T15:17:56.833Z,11.43
2023-02-15T15:20:28.198Z,11.51
2023-02-15T15:23:15.202Z,11.57
2023-02-15T15:25:54.806Z,11.44
2023-02-15T15:28:34.665Z,11.20
2023-02-15T15:31:21.570Z,11.19
2023-02-15T15:34:24.803Z,11.02
2023-02-15T15:37:10.832Z,11.19
2023-02-15T15:39:38.038Z,11.05
2023-02-15T15:42:49.043Z,11.01
2023-02-15T15:45:44.751Z,11.08
2023-02-15T15:48:34.303Z,10.66
2023-02-15T15:51:12.665Z,10.63
2023-02-15T15:53:43.645Z,10.54
2023-02-15T15:56:18.066Z,10.62
2023-02-15T15:58:50.318Z,10.54
2023-02-15T16:01:18.680Z,10.52
2023-02-15T16:03:51.358Z,10.57
2023-02-15T16:06:48.221Z,10.46
2023-02-15T16:09:25.519Z,10.42
2023-02-15T16:12:02.615Z,10.26
2023-02-15T16:14:33.562Z,10.42
2023-02-15T16:17:03.670Z,10.28
2023-02-15T16:19:38.545Z,10.23
2023-02-15T16:22:14.038Z,10.04
2023-02-15T16:24:50.761Z,10.11
2023-02-15T16:27:24.124Z,9.95
2023-02-15T16:29:55.202Z,9.86
2023-02-15T16:32:27.305Z,10.00
2023-02-15T16:35:00.258Z,9.78
2023-02-15T16:37:32.815Z,9.85
2023-02-15T16:40:00.908Z,9.87
2023-02-15T16:42:29.080Z,9.67
2023-02-15T16:45:14.085Z,9.74
2023-02-15T16:47:45.524Z,9.69
2023-02-15T16:50:21.998Z,9.57
2023-02-15T16:52:50.517Z,9.48
2023-02-15T16:55:26.904Z,9.44
2023-02-15T16:58:01.321Z,9.21
2023-02-15T17:00:32.528Z,9.27
2023-02-15T17:03:03.261Z,9.15
2023-02-15T17:05:45.669Z,9.07
2023-02-15T17:08:17.564Z,8.98
2023-02-15T17:10:47.682Z,8.85
2023-02-15T17:13:18.810Z,8.93
2023-02-15T17:16:01.695Z,8.90
2023-02-15T17:18:34.805Z,8.73
2023-02-15T17:21:10.673Z,8.69
2023-02-15T17:23:43.758Z,8.65
2023-02-15T17:26:25.719Z,8.40
2023-02-15T17:28:57.190Z,8.20
2023-02-15T17:31:29.541Z,8.46
2023-02-15T17:33:59.258Z,8.50
2023-02-15T17:36:30.532Z,8.43
2023-02-15T17:38:58.204Z,8.38
2023-02-15T17:41:26.913Z,8.25
2023-02-15T17:43:54.315Z,8.20
2023-02-15T17:46:24.767Z,8.07
2023-02-15T17:48:54.906Z,7.91
2023-02-15T17:51:22.912Z,7.80
2023-02-15T17:54:09.138Z,7.75
2023-02-15T17:56:38.347Z,7.67
2023-02-15T17:59:10.248Z,7.56
2023-02-15T18:02:03.040Z,7.46
2023-02-15T18:04:49.892Z,7.34
2023-02-15T18:07:36.750Z,7.22
2023-02-15T18:10:34.806Z,7.07
2023-02-15T18:13:02.266Z,7.04
2023-02-15T18:15:30.098Z,6.90
2023-02-15T18:17:57.532Z,6.91
2023-02-15T18:20:34.753Z,6.78
2023-02-15T18:23:02.845Z,6.75
2023-02-15T18:25:30.271Z,6.76
2023-02-15T18:27:57.663Z,6.67
2023-02-15T18:30:28.262Z,6.67
2023-02-15T18:32:57.280Z,6.68
2023-02-15T18:35:27.181Z,6.63
2023-02-15T18:37:54.844Z,6.49
2023-02-15T18:40:25.640Z,6.52
2023-02-15T18:42:53.647Z,6.49
2023-02-15T18:45:28.488Z,6.48
2023-02-15T18:47:56.195Z,6.36
2023-02-15T18:50:25.031Z,6.32
2023-02-15T18:52:52.387Z,6.33
2023-02-15T18:55:25.901Z,6.29
2023-02-15T18:57:54.937Z,6.26
2023-02-15T19:00:25.269Z,6.17
2023-02-15T19:02:53.929Z,6.18
2023-02-15T19:05:22.507Z,6.10
2023-02-15T19:07:50.805Z,6.06
2023-02-15T19:10:23.261Z,5.93
2023-02-15T19:12:52.454Z,5.87
2023-02-15T19:15:25.470Z,5.85
2023-02-15T19:17:53.829Z,5.84
2023-02-15T19:20:27.123Z,5.78
2023-02-15T19:22:56.176Z,5.78
2023-02-15T19:25:32.061Z,5.62
2023-02-15T19:28:00.242Z,5.62
2023-02-15T19:30:30.517Z,5.54
2023-02-15T19:32:59.429Z,5.63
2023-02-15T19:35:30.087Z,5.69
2023-02-15T19:37:59.902Z,5.64
2023-02-15T19:40:30.771Z,5.37
2023-02-15T19:42:58.379Z,5.36
2023-02-15T19:45:29.072Z,5.37
2023-02-15T19:47:57.390Z,5.53
2023-02-15T19:50:27.024Z,5.62
2023-02-15T19:52:54.728Z,5.53
2023-02-15T19:55:24.298Z,5.51
2023-02-15T19:57:53.381Z,5.54
2023-02-15T20:00:26.356Z,5.53
2023-02-15T20:02:54.348Z,5.46
2023-02-15T20:05:22.378Z,5.41
2023-02-15T20:07:52.012Z,5.34
2023-02-15T20:10:25.028Z,5.41
2023-02-15T20:12:52.754Z,5.38
2023-02-15T20:15:23.878Z,5.33
2023-02-15T20:17:51.361Z,5.35
2023-02-15T20:20:19.956Z,5.35
2023-02-15T20:22:49.497Z,5.18
2023-02-15T20:25:21.109Z,5.10
2023-02-15T20:27:48.750Z,5.05
2023-02-15T20:30:21.911Z,4.95
2023-02-15T20:32:50.075Z,4.98
2023-02-15T20:35:22.732Z,5.05
2023-02-15T20:37:55.647Z,4.88
2023-02-15T20:40:24.408Z,5.03
2023-02-15T20:42:52.178Z,5.05
2023-02-15T20:45:22.687Z,5.00
2023-02-15T20:47:51.173Z,4.92
2023-02-15T20:50:24.791Z,5.04
2023-02-15T20:52:54.063Z,4.95
2023-02-15T20:55:26.841Z,4.88
2023-02-15T20:57:54.105Z,4.76
2023-02-15T21:00:24.290Z,4.50
2023-02-15T21:02:54.645Z,4.49
2023-02-15T21:05:30.742Z,4.58
2023-02-15T21:07:59.627Z,4.62
2023-02-15T21:10:32.240Z,4.66
2023-02-15T21:13:00.258Z,4.65
2023-02-15T21:15:30.852Z,4.70
2023-02-15T21:18:00.404Z,4.78
2023-02-15T21:20:29.652Z,4.70
2023-02-15T21:22:59.671Z,4.66
2023-02-15T21:25:33.402Z,4.73
2023-02-15T21:28:01.122Z,4.70
2023-02-15T21:30:28.855Z,4.67
2023-02-15T21:32:56.236Z,4.57
2023-02-15T21:35:24.107Z,4.56
2023-02-15T21:37:52.775Z,4.51
2023-02-15T21:40:27.282Z,4.44
2023-02-15T21:43:13.735Z,4.36
2023-02-15T21:46:00.017Z,4.31
2023-02-15T21:48:28.157Z,4.33
2023-02-15T21:51:14.331Z,4.34
2023-02-15T21:53:45.807Z,4.26
2023-02-15T21:56:19.099Z,4.37
2023-02-15T21:58:47.328Z,4.29
2023-02-15T22:01:22.283Z,4.42
2023-02-15T22:03:50.563Z,4.43
2023-02-15T22:06:18.394Z,4.28
2023-02-15T22:08:47.916Z,4.24
2023-02-15T22:11:18.202Z,4.20
2023-02-15T22:13:47.341Z,4.15
2023-02-15T22:16:17.533Z,4.04
2023-02-15T22:18:46.084Z,4.17
2023-02-15T22:21:13.517Z,4.22
2023-02-15T22:23:40.858Z,4.21
2023-02-15T22:26:13.162Z,4.07
2023-02-15T22:28:41.174Z,4.08
2023-02-15T22:31:14.874Z,4.01
2023-02-15T22:33:44.710Z,4.02
2023-02-15T22:36:27.252Z,3.96
2023-02-15T22:38:55.291Z,3.97
2023-02-15T22:41:25.856Z,4.04
2023-02-15T22:43:53.230Z,4.01
2023-02-15T22:46:23.281Z,3.83
2023-02-15T22:48:51.867Z,3.89
2023-02-15T22:51:21.934Z,3.97
2023-02-15T22:53:51.747Z,4.04
2023-02-15T22:56:26.695Z,4.13
2023-02-15T22:59:01.349Z,4.11
2023-02-15T23:01:34.447Z,4.00
2023-02-15T23:04:03.786Z,4.11
2023-02-15T23:06:32.500Z,4.11
2023-02-15T23:09:00.847Z,4.03
2023-02-15T23:11:28.557Z,4.22
2023-02-15T23:13:56.266Z,4.07
2023-02-15T23:16:23.763Z,4.08
2023-02-15T23:18:51.440Z,4.05
2023-02-15T23:21:33.865Z,4.15
2023-02-15T23:24:22.474Z,4.08
2023-02-15T23:26:50.867Z,4.05
2023-02-15T23:29:20.943Z,4.04
2023-02-15T23:31:50.364Z,4.03
2023-02-15T23:34:31.617Z,4.00
2023-02-15T23:36:59.031Z,3.89
2023-02-15T23:39:46.201Z,3.79
2023-02-15T23:42:20.119Z,3.83
2023-02-15T23:44:48.720Z,3.76
2023-02-15T23:47:45.291Z,3.84
2023-02-15T23:50:23.938Z,3.84
2023-02-15T23:52:51.704Z,3.67
2023-02-15T23:55:20.208Z,3.68
2023-02-15T23:57:48.092Z,3.70
